Sitka, AK

2:36 PM AKST on February 25, 2017 (GMT -0900)
Sitka Rocky Gutierrez

Weather History for PASI - March, 2013

Change the Weather History Date:

Sunday, March 10, 2013

  Actual Average Record
Temperature  
Mean Temperature 36 °F -  
Max Temperature 39 °F 42 °F 52 °F (1984)
Min Temperature 33 °F 33 °F 13 °F (1956)
Degree Days  
Heating Degree Days 29    
Moisture  
Dew Point 34 °F    
Average Humidity 89    
Maximum Humidity 100    
Minimum Humidity 73    
Precipitation  
Precipitation 0.15 in - - ()
Sea Level Pressure  
Sea Level Pressure 30.29 in    
Wind  
Wind Speed 7 mph (ESE)    
Max Wind Speed 13 mph    
Max Gust Speed -    
Visibility 9 miles    
Events Fog , Rain , Snow    
Averages and records for this station are not official NWS values.
T = Trace of Precipitation, MM = Missing Value Source: NWS Daily Summary

Daily Weather History Graph

Daily Weather History Graph

Search for Another Location

Airport or City:

Trip Planner

Search our weather history database for the weather conditions in past years. The results will help you decide how hot, cold, wet, or windy it might be!

Date:

Astronomy

Mar. 10, 2013 Rise Set
Actual Time 7:29 AM AKDT 6:54 PM AKDT
Civil Twilight 6:51 AM AKDT 7:32 PM AKDT
Nautical Twilight 6:07 AM AKDT 8:17 PM AKDT
Astronomical Twilight 5:21 AM AKDT 9:03 PM AKDT
Moon 6:40 AM AKDT (3/10) 6:10 PM AKDT (3/10)
Length of Visible Light 12h 41m
Length of Day
11h 25m
Waning Crescent, 1% of the Moon is Illuminated
Mar 10
Waning Crescent
Mar 11
New
Mar 19
First Quarter
Mar 27
Full
Apr 2
Last Quarter

Hourly Weather History & Observations

Time (AKDT) Temp. Windchill Dew Point Humidity Pressure Visibility Wind Dir Wind Speed Gust Speed Precip Events Conditions
12:53 AM 37.9 °F 30.5 °F 34.0 °F 86% 30.25 in 10.0 mi WNW 11.5 mph - 0.00 in   Overcast
1:22 AM 37.4 °F 34.9 °F 32.0 °F 81% 30.26 in 10.0 mi WSW 3.5 mph - N/A   Mostly Cloudy
1:42 AM 39.2 °F 32.5 °F 33.8 °F 81% 30.27 in 10.0 mi WSW 10.4 mph - N/A   Mostly Cloudy
1:53 AM 39.9 °F 33.9 °F 32.0 °F 73% 30.27 in 10.0 mi WSW 9.2 mph - N/A   Mostly Cloudy
3:29 AM 37.4 °F 29.3 °F 33.8 °F 87% 30.28 in 10.0 mi NW 12.7 mph - N/A   Mostly Cloudy
4:02 AM 37.4 °F 33.8 °F 32.0 °F 81% 30.28 in 6.0 mi SSW 4.6 mph - 0.00 in Snow Small Hail
4:07 AM 35.6 °F 29.9 °F 32.0 °F 87% 30.28 in 2.5 mi SSW 6.9 mph - 0.04 in Snow Small Hail
4:13 AM 35.6 °F 31.7 °F 32.0 °F 87% 30.28 in 3.0 mi SSE 4.6 mph - 0.05 in Rain , Snow Light Rain
4:15 AM 35.6 °F 31.7 °F 33.8 °F 93% 30.28 in 5.0 mi SE 4.6 mph - 0.05 in Rain Light Rain
4:23 AM 35.6 °F - 33.8 °F 93% 30.29 in 10.0 mi Calm Calm - 0.05 in   Overcast
4:30 AM 35.6 °F 29.9 °F 33.8 °F 93% 30.29 in 10.0 mi SSE 6.9 mph - 0.05 in   Overcast
4:53 AM 35.1 °F 30.1 °F 33.1 °F 92% 30.29 in 10.0 mi ENE 5.8 mph - 0.05 in   Overcast
5:53 AM 37.0 °F 29.8 °F 34.0 °F 89% 30.29 in 10.0 mi ESE 10.4 mph - N/A   Overcast
6:30 AM 37.4 °F - 33.8 °F 87% 30.30 in 10.0 mi Calm Calm - N/A   Mostly Cloudy
6:39 AM 37.4 °F 33.8 °F 33.8 °F 87% 30.29 in 10.0 mi ESE 4.6 mph - N/A   Mostly Cloudy
6:53 AM 37.0 °F 33.3 °F 33.1 °F 86% 30.30 in 7.0 mi ESE 4.6 mph - 0.00 in Rain Light Rain
7:53 AM 36.0 °F 29.6 °F 33.1 °F 89% 30.30 in 10.0 mi ESE 8.1 mph - 0.00 in   Overcast
8:00 AM 35.6 °F 30.7 °F 33.8 °F 93% 30.30 in 10.0 mi East 5.8 mph - N/A   Mostly Cloudy
8:13 AM 35.6 °F 28.6 °F 33.8 °F 93% 30.30 in 1.8 mi SE 9.2 mph - 0.01 in Snow Light Snow
8:19 AM 35.6 °F 28.6 °F 33.8 °F 93% 30.31 in 1.2 mi South 9.2 mph - 0.02 in Snow Light Snow
8:27 AM 33.8 °F 27.7 °F 32.0 °F 93% 30.31 in 0.5 mi ESE 6.9 mph - 0.04 in Fog , Snow Snow
8:34 AM 33.8 °F 27.0 °F 32.0 °F 93% 30.31 in 4.0 mi East 8.1 mph - 0.06 in Snow Light Snow
8:38 AM 33.8 °F 27.0 °F 33.8 °F 100% 30.31 in 8.0 mi East 8.1 mph - 0.06 in Snow Light Snow
8:53 AM 34.0 °F 26.6 °F 33.1 °F 96% 30.31 in 9.0 mi East 9.2 mph - 0.06 in   Mostly Cloudy
9:03 AM 33.8 °F 25.8 °F 33.8 °F 100% 30.31 in 10.0 mi East 10.4 mph - N/A   Scattered Clouds
9:53 AM 36.0 °F 29.6 °F 33.1 °F 89% 30.30 in 9.0 mi East 8.1 mph - N/A   Overcast
10:37 AM 37.4 °F 32.1 °F 33.8 °F 87% 30.30 in 10.0 mi ESE 6.9 mph - N/A   Overcast
10:53 AM 39.0 °F 34.8 °F 35.1 °F 86% 30.30 in 10.0 mi ESE 5.8 mph - N/A   Overcast
11:53 AM 39.0 °F 33.4 °F 30.9 °F 73% 30.31 in 10.0 mi SSE 8.1 mph - N/A   Overcast
12:53 PM 39.0 °F 35.7 °F 33.1 °F 79% 30.31 in 9.0 mi ESE 4.6 mph - 0.00 in   Overcast
1:20 PM 39.2 °F 35.9 °F 32.0 °F 75% 30.31 in 10.0 mi SSE 4.6 mph - N/A   Overcast
1:53 PM 39.9 °F 37.8 °F 32.0 °F 73% 30.30 in 10.0 mi SE 3.5 mph - 0.00 in   Overcast
2:53 PM 39.9 °F 35.1 °F 34.0 °F 79% 30.30 in 10.0 mi SW 6.9 mph - 0.00 in Rain Light Rain
3:12 PM 39.2 °F 35.9 °F 33.8 °F 81% 30.30 in 10.0 mi SSE 4.6 mph - 0.00 in Rain Light Rain
3:53 PM 39.9 °F - 34.0 °F 79% 30.31 in 10.0 mi Calm Calm - 0.00 in   Overcast
4:16 PM 39.2 °F 37.0 °F 35.6 °F 87% 30.30 in 10.0 mi East 3.5 mph - N/A   Overcast
4:49 PM 39.2 °F 35.0 °F 33.8 °F 81% 30.30 in 10.0 mi East 5.8 mph - 0.00 in Rain Light Rain
4:53 PM 39.0 °F 34.8 °F 34.0 °F 82% 30.30 in 10.0 mi ESE 5.8 mph - 0.00 in   Overcast
5:53 PM 39.0 °F - 35.1 °F 86% 30.29 in 10.0 mi Calm Calm - 0.01 in   Overcast
6:53 PM 37.9 °F 33.5 °F 35.1 °F 89% 30.29 in 10.0 mi East 5.8 mph - 0.00 in   Overcast
7:53 PM 37.0 °F 33.3 °F 35.1 °F 93% 30.30 in 10.0 mi ESE 4.6 mph - N/A   Overcast
8:08 PM 37.4 °F 32.8 °F 35.6 °F 93% 30.29 in 10.0 mi East 5.8 mph - N/A   Overcast
8:21 PM 37.4 °F 33.8 °F 35.6 °F 93% 30.29 in 8.0 mi East 4.6 mph - 0.00 in Rain Light Rain
8:29 PM 37.4 °F 32.8 °F 35.6 °F 93% 30.29 in 10.0 mi ESE 5.8 mph - 0.00 in   Overcast
8:33 PM 37.4 °F 34.9 °F 35.6 °F 93% 30.29 in 10.0 mi Variable 3.5 mph - 0.00 in   Overcast
8:51 PM 37.4 °F 31.4 °F 35.6 °F 93% 30.29 in 10.0 mi SE 8.1 mph - 0.00 in Rain Light Rain
8:53 PM 37.0 °F 31.6 °F 35.1 °F 93% 30.30 in 10.0 mi ESE 6.9 mph - 0.00 in Rain Light Rain
9:00 PM 37.4 °F 30.8 °F 35.6 °F 93% 30.29 in 10.0 mi ESE 9.2 mph - 0.00 in Rain Light Rain
9:09 PM 37.4 °F 32.1 °F 35.6 °F 93% 30.29 in 10.0 mi East 6.9 mph - 0.00 in   Overcast
9:53 PM 37.0 °F 31.6 °F 35.1 °F 93% 30.29 in 10.0 mi East 6.9 mph - 0.00 in   Overcast
10:16 PM 35.6 °F 29.9 °F 35.6 °F 100% 30.29 in 10.0 mi East 6.9 mph - N/A   Overcast
10:43 PM 35.6 °F 28.6 °F 35.6 °F 100% 30.29 in 7.0 mi SSE 9.2 mph - 0.00 in Rain Light Rain
10:53 PM 36.0 °F 29.6 °F 34.0 °F 93% 30.30 in 4.0 mi SSE 8.1 mph - 0.02 in Rain Rain
11:19 PM 35.6 °F 30.7 °F 33.8 °F 93% 30.30 in 10.0 mi ESE 5.8 mph - 0.00 in   Overcast
11:27 PM 35.6 °F 31.7 °F 33.8 °F 93% 30.30 in 8.0 mi East 4.6 mph - 0.00 in Rain Light Rain
11:53 PM 35.1 °F 30.1 °F 34.0 °F 96% 30.30 in 10.0 mi East 5.8 mph - 0.01 in   Overcast
12:45 AM 35.6 °F 29.2 °F 33.8 °F 93% 30.29 in 10.0 mi ESE 8.1 mph - N/A   Overcast
12:53 AM 36.0 °F 29.6 °F 34.0 °F 93% 30.29 in 10.0 mi East 8.1 mph - N/A   Overcast